sensor_id;sensor_type;location;lat;lon;timestamp;P1;durP1;ratioP1;P2;durP2;ratioP2
71763;SDS011;59602;52.142;5.408;2022-10-22T00:01:51;8.33;;;3.43;;
71763;SDS011;59602;52.142;5.408;2022-10-22T00:04:17;6.65;;;3.45;;
71763;SDS011;59602;52.142;5.408;2022-10-22T00:06:45;10.98;;;3.90;;
71763;SDS011;59602;52.142;5.408;2022-10-22T00:09:13;8.38;;;3.40;;
71763;SDS011;59602;52.142;5.408;2022-10-22T00:11:40;7.97;;;2.60;;
71763;SDS011;59602;52.142;5.408;2022-10-22T00:14:12;7.40;;;3.30;;
71763;SDS011;59602;52.142;5.408;2022-10-22T00:16:38;9.43;;;3.45;;
71763;SDS011;59602;52.142;5.408;2022-10-22T00:19:05;8.50;;;2.55;;
71763;SDS011;59602;52.142;5.408;2022-10-22T00:21:32;8.75;;;1.80;;
71763;SDS011;59602;52.142;5.408;2022-10-22T00:24:00;4.80;;;2.70;;
71763;SDS011;59602;52.142;5.408;2022-10-22T00:26:27;6.20;;;2.43;;
71763;SDS011;59602;52.142;5.408;2022-10-22T00:29:10;7.57;;;2.33;;
71763;SDS011;59602;52.142;5.408;2022-10-22T00:31:37;5.38;;;2.10;;
71763;SDS011;59602;52.142;5.408;2022-10-22T00:34:04;4.40;;;2.30;;
71763;SDS011;59602;52.142;5.408;2022-10-22T00:36:31;8.77;;;2.80;;
71763;SDS011;59602;52.142;5.408;2022-10-22T00:38:59;7.10;;;2.57;;
71763;SDS011;59602;52.142;5.408;2022-10-22T00:41:26;6.18;;;2.40;;
71763;SDS011;59602;52.142;5.408;2022-10-22T00:43:56;5.20;;;2.42;;
71763;SDS011;59602;52.142;5.408;2022-10-22T00:46:42;7.47;;;2.15;;
71763;SDS011;59602;52.142;5.408;2022-10-22T00:49:08;5.63;;;2.42;;
71763;SDS011;59602;52.142;5.408;2022-10-22T00:51:37;7.50;;;2.37;;
71763;SDS011;59602;52.142;5.408;2022-10-22T00:54:30;6.22;;;2.28;;
71763;SDS011;59602;52.142;5.408;2022-10-22T00:56:57;5.22;;;2.08;;
71763;SDS011;59602;52.142;5.408;2022-10-22T00:59:42;5.07;;;2.20;;
71763;SDS011;59602;52.142;5.408;2022-10-22T01:02:17;4.35;;;2.35;;
71763;SDS011;59602;52.142;5.408;2022-10-22T01:04:44;5.87;;;2.40;;
71763;SDS011;59602;52.142;5.408;2022-10-22T01:07:18;5.05;;;2.05;;
71763;SDS011;59602;52.142;5.408;2022-10-22T01:15:50;4.95;;;2.40;;
71763;SDS011;59602;52.142;5.408;2022-10-22T01:18:53;5.60;;;1.90;;
71763;SDS011;59602;52.142;5.408;2022-10-22T01:33:28;5.45;;;2.22;;
71763;SDS011;59602;52.142;5.408;2022-10-22T01:40:34;4.38;;;2.05;;
71763;SDS011;59602;52.142;5.408;2022-10-22T01:47:38;6.30;;;2.20;;
71763;SDS011;59602;52.142;5.408;2022-10-22T02:11:47;6.15;;;1.48;;
71763;SDS011;59602;52.142;5.408;2022-10-22T02:15:19;5.83;;;1.60;;
71763;SDS011;59602;52.142;5.408;2022-10-22T03:07:04;6.30;;;1.73;;
71763;SDS011;59602;52.142;5.408;2022-10-22T03:39:44;7.05;;;2.20;;
71763;SDS011;59602;52.142;5.408;2022-10-22T06:36:42;6.32;;;3.08;;
71763;SDS011;59602;52.142;5.408;2022-10-22T06:51:25;7.88;;;3.78;;
71763;SDS011;59602;52.142;5.408;2022-10-22T06:59:05;4.43;;;2.72;;
71763;SDS011;59602;52.142;5.408;2022-10-22T07:02:31;8.80;;;2.73;;
71763;SDS011;59602;52.142;5.408;2022-10-22T07:05:43;8.50;;;2.67;;
71763;SDS011;59602;52.142;5.408;2022-10-22T07:08:46;8.20;;;2.72;;
71763;SDS011;59602;52.142;5.408;2022-10-22T07:11:18;7.45;;;2.45;;
71763;SDS011;59602;52.142;5.408;2022-10-22T07:14:48;8.48;;;2.63;;
71763;SDS011;59602;52.142;5.408;2022-10-22T07:21:07;7.65;;;4.03;;
71763;SDS011;59602;52.142;5.408;2022-10-22T07:24:43;10.30;;;2.70;;
71763;SDS011;59602;52.142;5.408;2022-10-22T07:31:48;6.30;;;2.78;;
71763;SDS011;59602;52.142;5.408;2022-10-22T07:55:21;7.53;;;3.70;;
71763;SDS011;59602;52.142;5.408;2022-10-22T07:58:53;6.53;;;3.40;;
71763;SDS011;59602;52.142;5.408;2022-10-22T08:05:57;8.48;;;3.88;;
71763;SDS011;59602;52.142;5.408;2022-10-22T08:09:02;6.85;;;3.58;;
71763;SDS011;59602;52.142;5.408;2022-10-22T08:12:36;9.57;;;3.60;;
71763;SDS011;59602;52.142;5.408;2022-10-22T08:15:53;9.90;;;3.38;;
71763;SDS011;59602;52.142;5.408;2022-10-22T08:18:23;6.93;;;3.15;;
71763;SDS011;59602;52.142;5.408;2022-10-22T08:20:53;11.05;;;3.00;;
71763;SDS011;59602;52.142;5.408;2022-10-22T08:23:20;11.73;;;2.80;;
71763;SDS011;59602;52.142;5.408;2022-10-22T08:25:53;13.33;;;3.27;;
71763;SDS011;59602;52.142;5.408;2022-10-22T08:28:20;10.48;;;1.90;;
71763;SDS011;59602;52.142;5.408;2022-10-22T08:30:47;13.63;;;3.65;;
71763;SDS011;59602;52.142;5.408;2022-10-22T08:33:14;7.18;;;2.00;;
71763;SDS011;59602;52.142;5.408;2022-10-22T08:35:40;6.35;;;1.30;;
71763;SDS011;59602;52.142;5.408;2022-10-22T08:38:07;4.30;;;1.00;;
71763;SDS011;59602;52.142;5.408;2022-10-22T08:40:36;7.13;;;2.00;;
71763;SDS011;59602;52.142;5.408;2022-10-22T08:45:50;8.35;;;1.25;;
71763;SDS011;59602;52.142;5.408;2022-10-22T08:51:02;13.37;;;0.97;;
71763;SDS011;59602;52.142;5.408;2022-10-22T08:53:35;6.60;;;1.23;;
71763;SDS011;59602;52.142;5.408;2022-10-22T08:56:16;6.72;;;0.93;;
71763;SDS011;59602;52.142;5.408;2022-10-22T08:59:19;4.25;;;0.80;;
71763;SDS011;59602;52.142;5.408;2022-10-22T09:02:17;11.55;;;1.05;;
71763;SDS011;59602;52.142;5.408;2022-10-22T09:07:47;5.70;;;0.80;;
71763;SDS011;59602;52.142;5.408;2022-10-22T09:10:18;9.55;;;0.98;;
71763;SDS011;59602;52.142;5.408;2022-10-22T09:12:49;5.38;;;0.80;;
71763;SDS011;59602;52.142;5.408;2022-10-22T09:15:17;4.38;;;0.98;;
71763;SDS011;59602;52.142;5.408;2022-10-22T09:18:00;4.43;;;0.90;;
71763;SDS011;59602;52.142;5.408;2022-10-22T09:20:40;10.43;;;1.35;;
71763;SDS011;59602;52.142;5.408;2022-10-22T09:25:54;6.03;;;0.93;;
71763;SDS011;59602;52.142;5.408;2022-10-22T09:28:22;9.65;;;0.88;;
71763;SDS011;59602;52.142;5.408;2022-10-22T09:30:49;5.93;;;0.90;;
71763;SDS011;59602;52.142;5.408;2022-10-22T09:33:25;9.00;;;1.13;;
71763;SDS011;59602;52.142;5.408;2022-10-22T09:35:57;10.43;;;1.02;;
71763;SDS011;59602;52.142;5.408;2022-10-22T09:38:56;13.27;;;1.40;;
71763;SDS011;59602;52.142;5.408;2022-10-22T09:41:24;8.25;;;0.82;;
71763;SDS011;59602;52.142;5.408;2022-10-22T09:43:55;7.13;;;1.10;;
71763;SDS011;59602;52.142;5.408;2022-10-22T09:46:48;8.50;;;0.90;;
71763;SDS011;59602;52.142;5.408;2022-10-22T09:49:46;6.53;;;0.70;;
71763;SDS011;59602;52.142;5.408;2022-10-22T09:52:22;7.07;;;1.17;;
71763;SDS011;59602;52.142;5.408;2022-10-22T09:54:55;8.57;;;1.00;;
71763;SDS011;59602;52.142;5.408;2022-10-22T09:57:22;5.33;;;0.97;;
71763;SDS011;59602;52.142;5.408;2022-10-22T09:59:50;6.93;;;1.10;;
71763;SDS011;59602;52.142;5.408;2022-10-22T10:03:01;5.35;;;1.58;;
71763;SDS011;59602;52.142;5.408;2022-10-22T10:06:18;5.80;;;0.80;;
71763;SDS011;59602;52.142;5.408;2022-10-22T10:29:43;3.73;;;0.83;;
71763;SDS011;59602;52.142;5.408;2022-10-22T10:35:24;7.18;;;1.15;;
71763;SDS011;59602;52.142;5.408;2022-10-22T10:43:40;6.63;;;0.80;;
71763;SDS011;59602;52.142;5.408;2022-10-22T10:46:32;6.20;;;1.10;;
71763;SDS011;59602;52.142;5.408;2022-10-22T10:49:09;6.32;;;0.80;;
71763;SDS011;59602;52.142;5.408;2022-10-22T10:54:29;6.43;;;0.90;;
71763;SDS011;59602;52.142;5.408;2022-10-22T10:57:05;4.17;;;0.50;;
71763;SDS011;59602;52.142;5.408;2022-10-22T10:59:42;7.10;;;1.45;;
71763;SDS011;59602;52.142;5.408;2022-10-22T11:07:28;4.63;;;0.50;;
71763;SDS011;59602;52.142;5.408;2022-10-22T11:10:02;7.73;;;0.47;;
71763;SDS011;59602;52.142;5.408;2022-10-22T11:12:38;6.47;;;0.50;;
71763;SDS011;59602;52.142;5.408;2022-10-22T11:15:25;7.88;;;1.17;;
71763;SDS011;59602;52.142;5.408;2022-10-22T11:18:00;6.97;;;0.75;;
71763;SDS011;59602;52.142;5.408;2022-10-22T11:20:48;4.05;;;0.45;;
71763;SDS011;59602;52.142;5.408;2022-10-22T11:23:22;4.37;;;0.63;;
71763;SDS011;59602;52.142;5.408;2022-10-22T11:25:53;7.75;;;0.70;;
71763;SDS011;59602;52.142;5.408;2022-10-22T11:28:22;4.60;;;0.50;;
71763;SDS011;59602;52.142;5.408;2022-10-22T11:30:58;8.50;;;0.40;;
71763;SDS011;59602;52.142;5.408;2022-10-22T11:33:32;4.38;;;0.80;;
71763;SDS011;59602;52.142;5.408;2022-10-22T11:36:06;6.57;;;0.70;;
71763;SDS011;59602;52.142;5.408;2022-10-22T11:38:34;8.07;;;0.70;;
71763;SDS011;59602;52.142;5.408;2022-10-22T11:41:04;6.55;;;0.40;;
71763;SDS011;59602;52.142;5.408;2022-10-22T11:46:26;6.43;;;0.43;;
71763;SDS011;59602;52.142;5.408;2022-10-22T11:49:15;6.10;;;0.67;;
71763;SDS011;59602;52.142;5.408;2022-10-22T11:51:44;4.40;;;0.60;;
71763;SDS011;59602;52.142;5.408;2022-10-22T11:54:30;6.80;;;1.20;;
71763;SDS011;59602;52.142;5.408;2022-10-22T11:57:16;5.40;;;0.50;;
71763;SDS011;59602;52.142;5.408;2022-10-22T11:59:47;7.78;;;0.45;;
71763;SDS011;59602;52.142;5.408;2022-10-22T12:02:21;6.10;;;0.60;;
71763;SDS011;59602;52.142;5.408;2022-10-22T12:04:48;4.38;;;0.30;;
71763;SDS011;59602;52.142;5.408;2022-10-22T12:07:29;6.35;;;0.70;;
71763;SDS011;59602;52.142;5.408;2022-10-22T12:09:58;5.75;;;0.65;;
71763;SDS011;59602;52.142;5.408;2022-10-22T12:12:25;7.22;;;0.63;;
71763;SDS011;59602;52.142;5.408;2022-10-22T12:14:55;5.80;;;0.57;;
71763;SDS011;59602;52.142;5.408;2022-10-22T12:17:23;8.73;;;0.60;;
71763;SDS011;59602;52.142;5.408;2022-10-22T12:19:54;4.20;;;0.50;;
71763;SDS011;59602;52.142;5.408;2022-10-22T12:22:29;4.53;;;0.30;;
71763;SDS011;59602;52.142;5.408;2022-10-22T12:24:59;11.52;;;0.60;;
71763;SDS011;59602;52.142;5.408;2022-10-22T12:27:32;8.23;;;0.60;;
71763;SDS011;59602;52.142;5.408;2022-10-22T12:30:01;6.30;;;0.75;;
71763;SDS011;59602;52.142;5.408;2022-10-22T12:32:42;5.50;;;0.57;;
71763;SDS011;59602;52.142;5.408;2022-10-22T12:35:18;6.93;;;0.55;;
71763;SDS011;59602;52.142;5.408;2022-10-22T12:37:48;5.00;;;0.50;;
71763;SDS011;59602;52.142;5.408;2022-10-22T12:42:50;9.07;;;0.82;;
71763;SDS011;59602;52.142;5.408;2022-10-22T12:45:20;6.68;;;0.80;;
71763;SDS011;59602;52.142;5.408;2022-10-22T12:47:50;7.93;;;0.75;;
71763;SDS011;59602;52.142;5.408;2022-10-22T12:50:22;5.72;;;0.77;;
71763;SDS011;59602;52.142;5.408;2022-10-22T12:52:54;7.70;;;0.50;;
71763;SDS011;59602;52.142;5.408;2022-10-22T12:55:21;5.85;;;0.43;;
71763;SDS011;59602;52.142;5.408;2022-10-22T12:57:51;6.95;;;0.60;;
71763;SDS011;59602;52.142;5.408;2022-10-22T13:00:19;8.93;;;0.85;;
71763;SDS011;59602;52.142;5.408;2022-10-22T13:02:48;5.60;;;0.50;;
71763;SDS011;59602;52.142;5.408;2022-10-22T13:07:49;4.88;;;0.57;;
71763;SDS011;59602;52.142;5.408;2022-10-22T13:10:19;7.07;;;0.47;;
71763;SDS011;59602;52.142;5.408;2022-10-22T13:12:49;7.32;;;0.63;;
71763;SDS011;59602;52.142;5.408;2022-10-22T13:17:48;6.70;;;0.80;;
71763;SDS011;59602;52.142;5.408;2022-10-22T13:25:27;5.93;;;0.88;;
71763;SDS011;59602;52.142;5.408;2022-10-22T13:27:56;6.97;;;0.70;;
71763;SDS011;59602;52.142;5.408;2022-10-22T13:30:27;6.13;;;0.60;;
71763;SDS011;59602;52.142;5.408;2022-10-22T13:33:03;7.63;;;0.57;;
71763;SDS011;59602;52.142;5.408;2022-10-22T13:35:33;4.55;;;0.50;;
71763;SDS011;59602;52.142;5.408;2022-10-22T13:38:11;7.82;;;0.90;;
71763;SDS011;59602;52.142;5.408;2022-10-22T13:40:44;7.18;;;1.13;;
71763;SDS011;59602;52.142;5.408;2022-10-22T13:43:34;10.57;;;0.93;;
71763;SDS011;59602;52.142;5.408;2022-10-22T13:46:01;8.15;;;0.80;;
71763;SDS011;59602;52.142;5.408;2022-10-22T13:48:27;8.25;;;0.90;;
71763;SDS011;59602;52.142;5.408;2022-10-22T13:50:55;8.43;;;1.30;;
71763;SDS011;59602;52.142;5.408;2022-10-22T14:22:19;7.43;;;1.50;;
71763;SDS011;59602;52.142;5.408;2022-10-22T14:26:51;10.65;;;1.50;;
71763;SDS011;59602;52.142;5.408;2022-10-22T14:29:02;9.40;;;1.45;;
71763;SDS011;59602;52.142;5.408;2022-10-22T14:31:53;4.67;;;1.13;;
71763;SDS011;59602;52.142;5.408;2022-10-22T14:34:48;8.82;;;1.33;;
71763;SDS011;59602;52.142;5.408;2022-10-22T14:37:47;8.15;;;1.23;;
71763;SDS011;59602;52.142;5.408;2022-10-22T14:40:24;7.38;;;1.40;;
71763;SDS011;59602;52.142;5.408;2022-10-22T14:43:28;7.95;;;0.75;;
71763;SDS011;59602;52.142;5.408;2022-10-22T14:49:59;10.35;;;0.90;;
71763;SDS011;59602;52.142;5.408;2022-10-22T15:09:35;5.90;;;1.17;;
71763;SDS011;59602;52.142;5.408;2022-10-22T15:12:01;9.52;;;1.10;;
71763;SDS011;59602;52.142;5.408;2022-10-22T15:14:28;9.23;;;1.20;;
71763;SDS011;59602;52.142;5.408;2022-10-22T15:16:55;8.10;;;0.93;;
71763;SDS011;59602;52.142;5.408;2022-10-22T15:19:21;5.23;;;0.97;;
71763;SDS011;59602;52.142;5.408;2022-10-22T15:21:48;7.22;;;1.23;;
71763;SDS011;59602;52.142;5.408;2022-10-22T19:27:12;17.38;;;7.45;;
71763;SDS011;59602;52.142;5.408;2022-10-22T19:32:40;13.15;;;6.95;;
71763;SDS011;59602;52.142;5.408;2022-10-22T20:22:27;14.38;;;6.75;;
